createdAt,value
2018-12-13T00:01:14.528Z,6.33
2018-12-13T00:03:25.384Z,7.30
2018-12-13T00:05:36.261Z,6.27
2018-12-13T00:07:47.115Z,6.73
2018-12-13T00:09:57.981Z,6.27
2018-12-13T00:12:08.933Z,6.40
2018-12-13T00:14:19.776Z,6.63
2018-12-13T00:16:30.679Z,6.57
2018-12-13T00:18:41.565Z,6.50
2018-12-13T00:20:52.417Z,7.77
2018-12-13T00:23:03.281Z,6.27
2018-12-13T00:25:14.148Z,6.93
2018-12-13T00:27:25.030Z,6.43
2018-12-13T00:29:35.912Z,6.13
2018-12-13T00:31:46.758Z,7.20
2018-12-13T00:33:57.585Z,6.17
2018-12-13T00:36:08.448Z,5.73
2018-12-13T00:38:20.152Z,6.07
2018-12-13T00:40:30.990Z,5.47
2018-12-13T00:42:41.883Z,5.47
2018-12-13T00:44:52.740Z,6.00
2018-12-13T00:47:03.693Z,6.17
2018-12-13T00:49:14.582Z,5.90
2018-12-13T00:51:25.413Z,5.43
2018-12-13T00:53:36.405Z,5.70
2018-12-13T00:55:47.257Z,6.00
2018-12-13T00:57:58.135Z,6.23
2018-12-13T01:00:09.053Z,6.13
2018-12-13T01:02:19.880Z,5.50
2018-12-13T01:04:30.749Z,5.53
2018-12-13T01:06:46.015Z,6.03
2018-12-13T01:08:54.594Z,5.70
2018-12-13T01:11:05.501Z,5.73
2018-12-13T01:13:16.360Z,6.03
2018-12-13T01:15:29.285Z,6.20
2018-12-13T01:17:40.137Z,5.80
2018-12-13T01:19:51.050Z,5.73
2018-12-13T01:22:01.924Z,5.23
2018-12-13T01:24:12.786Z,5.80
2018-12-13T01:26:23.681Z,5.63
2018-12-13T01:28:35.492Z,6.43
2018-12-13T01:30:46.386Z,5.60
2018-12-13T01:32:58.047Z,5.33
2018-12-13T01:35:08.939Z,4.87
2018-12-13T01:37:19.763Z,6.03
2018-12-13T01:39:30.597Z,6.20
2018-12-13T01:41:41.453Z,6.27
2018-12-13T01:43:52.341Z,5.93
2018-12-13T01:46:03.350Z,5.67
2018-12-13T01:48:14.193Z,5.33
2018-12-13T01:50:25.058Z,5.87
2018-12-13T01:52:35.905Z,5.83
2018-12-13T01:54:46.742Z,5.87
2018-12-13T01:56:57.635Z,5.87
2018-12-13T01:59:08.495Z,5.93
2018-12-13T02:01:19.353Z,5.90
2018-12-13T02:03:30.207Z,5.90
2018-12-13T02:05:41.143Z,5.00
2018-12-13T02:07:52.009Z,5.80
2018-12-13T02:10:03.366Z,5.33
2018-12-13T02:12:14.348Z,6.00
2018-12-13T02:14:25.474Z,6.77
2018-12-13T02:16:36.498Z,6.87
2018-12-13T02:18:47.400Z,6.27
2018-12-13T02:20:59.079Z,5.33
2018-12-13T02:23:09.997Z,5.90
2018-12-13T02:25:20.920Z,5.80
2018-12-13T02:27:31.767Z,5.27
2018-12-13T02:29:42.718Z,5.83
2018-12-13T02:31:53.737Z,6.07
2018-12-13T02:34:04.604Z,5.70
2018-12-13T02:36:15.481Z,5.93
2018-12-13T02:38:26.397Z,5.87
2018-12-13T02:40:37.225Z,7.00
2018-12-13T02:42:48.125Z,7.13
2018-12-13T02:44:58.942Z,6.10
2018-12-13T02:47:09.769Z,5.80
2018-12-13T02:49:20.625Z,6.03
2018-12-13T02:51:31.466Z,6.93
2018-12-13T02:53:42.328Z,5.57
2018-12-13T02:55:54.169Z,6.90
2018-12-13T02:58:05.021Z,6.17
2018-12-13T03:00:15.889Z,5.70
2018-12-13T03:02:26.717Z,6.43
2018-12-13T03:04:37.561Z,6.90
2018-12-13T03:06:48.397Z,5.87
2018-12-13T03:08:59.261Z,7.50
2018-12-13T03:11:10.073Z,7.00
2018-12-13T03:13:20.964Z,6.93
2018-12-13T03:15:31.827Z,6.17
2018-12-13T03:17:42.667Z,6.77
2018-12-13T03:19:53.522Z,7.13
2018-12-13T03:22:04.352Z,7.43
2018-12-13T03:24:15.180Z,8.17
2018-12-13T03:26:26.037Z,7.87
2018-12-13T03:28:36.898Z,8.00
2018-12-13T03:30:47.892Z,8.07
2018-12-13T03:32:58.826Z,8.33
2018-12-13T03:35:09.670Z,7.30
2018-12-13T03:37:21.060Z,8.50
2018-12-13T03:39:32.128Z,7.07
2018-12-13T03:41:42.965Z,8.20
2018-12-13T03:43:53.915Z,7.80
2018-12-13T03:46:04.804Z,8.10
2018-12-13T03:48:15.702Z,7.73
2018-12-13T03:50:26.585Z,8.30
2018-12-13T03:52:37.559Z,8.17
2018-12-13T03:54:48.392Z,7.60
2018-12-13T03:56:59.358Z,7.97
2018-12-13T03:59:10.189Z,8.43
2018-12-13T04:01:21.052Z,7.87
2018-12-13T04:03:31.885Z,8.10
2018-12-13T04:05:42.915Z,8.40
2018-12-13T04:07:53.842Z,8.03
2018-12-13T04:10:04.808Z,8.07
2018-12-13T04:12:15.891Z,7.70
2018-12-13T04:14:26.706Z,8.57
2018-12-13T04:16:37.543Z,8.07
2018-12-13T04:18:48.376Z,8.23
2018-12-13T04:20:59.225Z,7.07
2018-12-13T04:23:10.129Z,8.70
2018-12-13T04:25:20.988Z,8.50
2018-12-13T04:27:31.806Z,8.57
2018-12-13T04:29:42.671Z,7.97
2018-12-13T04:31:53.509Z,8.67
2018-12-13T04:34:04.358Z,8.67
2018-12-13T04:36:15.218Z,8.00
2018-12-13T04:38:26.121Z,8.50
2018-12-13T04:40:36.975Z,8.40
2018-12-13T04:42:47.846Z,8.27
2018-12-13T04:44:58.713Z,8.47
2018-12-13T04:47:09.567Z,8.07
2018-12-13T04:49:20.524Z,8.03
2018-12-13T04:51:31.437Z,8.43
2018-12-13T04:53:42.310Z,8.40
2018-12-13T04:55:53.161Z,9.10
2018-12-13T04:58:03.986Z,9.23
2018-12-13T05:00:14.864Z,9.70
2018-12-13T05:02:25.706Z,9.63
2018-12-13T05:04:36.560Z,8.87
2018-12-13T05:06:47.965Z,8.97
2018-12-13T05:08:58.908Z,8.90
2018-12-13T05:11:09.760Z,9.03
2018-12-13T05:13:20.634Z,9.10
2018-12-13T05:15:31.467Z,8.63
2018-12-13T05:17:42.328Z,9.27
2018-12-13T05:19:53.181Z,8.70
2018-12-13T05:22:04.103Z,8.57
2018-12-13T05:24:14.931Z,9.33
2018-12-13T05:26:25.822Z,8.60
2018-12-13T05:28:36.662Z,8.43
2018-12-13T05:30:47.533Z,8.27
2018-12-13T05:32:58.401Z,8.67
2018-12-13T05:35:09.312Z,8.80
2018-12-13T05:37:20.159Z,8.63
2018-12-13T05:39:30.999Z,11.73
2018-12-13T05:41:41.853Z,9.53
2018-12-13T05:43:52.935Z,9.50
2018-12-13T05:46:03.821Z,8.93
2018-12-13T05:48:14.698Z,8.70
2018-12-13T05:50:25.707Z,8.57
2018-12-13T05:52:36.580Z,8.33
2018-12-13T05:54:47.428Z,7.77
2018-12-13T05:56:58.277Z,7.97
2018-12-13T05:59:09.097Z,8.67
2018-12-13T06:01:19.935Z,8.90
2018-12-13T06:03:30.901Z,8.07
2018-12-13T06:05:41.800Z,7.37
2018-12-13T06:07:55.009Z,7.83
2018-12-13T06:10:05.585Z,8.00
2018-12-13T06:12:16.462Z,8.50
2018-12-13T06:14:27.346Z,8.50
2018-12-13T06:16:38.218Z,8.90
2018-12-13T06:18:49.060Z,9.40
2018-12-13T06:20:59.914Z,8.87
2018-12-13T06:23:10.806Z,8.43
2018-12-13T06:25:21.772Z,9.07
2018-12-13T06:27:32.640Z,8.97
2018-12-13T06:29:48.836Z,9.17
2018-12-13T06:31:56.375Z,9.00
2018-12-13T06:34:07.238Z,8.60
2018-12-13T06:36:18.108Z,8.97
2018-12-13T06:38:28.980Z,9.43
2018-12-13T06:40:39.816Z,8.57
2018-12-13T06:42:50.689Z,8.77
2018-12-13T06:45:01.564Z,8.73
2018-12-13T06:47:12.509Z,9.03
2018-12-13T06:49:23.389Z,8.90
2018-12-13T06:51:34.260Z,8.87
2018-12-13T06:53:45.129Z,8.57
2018-12-13T06:55:56.030Z,8.57
2018-12-13T06:58:06.959Z,8.77
2018-12-13T07:00:17.895Z,9.17
2018-12-13T07:02:28.812Z,9.47
2018-12-13T07:04:39.671Z,8.63
2018-12-13T07:06:50.563Z,8.90
2018-12-13T07:09:01.502Z,8.40
2018-12-13T07:11:12.396Z,8.93
2018-12-13T07:13:23.256Z,8.23
2018-12-13T07:15:34.128Z,9.23
2018-12-13T07:17:44.969Z,9.50
2018-12-13T07:19:55.869Z,9.20
2018-12-13T07:22:06.866Z,8.83
2018-12-13T07:24:17.850Z,9.90
2018-12-13T07:26:28.781Z,8.87
2018-12-13T07:28:39.680Z,9.17
2018-12-13T07:30:50.676Z,9.10
2018-12-13T07:33:01.586Z,9.43
2018-12-13T07:35:12.568Z,9.53
2018-12-13T07:37:23.493Z,9.53
2018-12-13T07:39:34.378Z,10.07
2018-12-13T07:41:45.313Z,10.30
2018-12-13T07:43:57.532Z,8.97
2018-12-13T07:46:11.359Z,8.67
2018-12-13T07:48:23.130Z,9.60
2018-12-13T07:50:35.259Z,8.97
2018-12-13T07:52:46.651Z,9.70
2018-12-13T07:54:57.755Z,9.10
2018-12-13T07:57:08.608Z,10.10
2018-12-13T07:59:19.462Z,8.70
2018-12-13T08:01:30.292Z,10.07
2018-12-13T08:03:41.132Z,10.20
2018-12-13T08:05:52.015Z,10.20
2018-12-13T08:08:02.825Z,9.97
2018-12-13T08:10:13.680Z,9.90
2018-12-13T08:12:24.644Z,10.03
2018-12-13T08:14:35.536Z,8.77
2018-12-13T08:16:46.369Z,9.53
2018-12-13T08:18:57.221Z,10.00
2018-12-13T08:21:08.049Z,10.37
2018-12-13T08:23:18.924Z,10.70
2018-12-13T08:25:29.744Z,9.70
2018-12-13T08:27:40.625Z,10.30
2018-12-13T08:29:51.457Z,10.30
2018-12-13T08:32:02.273Z,10.00
2018-12-13T08:34:13.122Z,10.10
2018-12-13T08:36:24.012Z,10.20
2018-12-13T08:38:34.864Z,10.57
2018-12-13T08:40:45.673Z,10.23
2018-12-13T08:42:56.555Z,9.50
2018-12-13T08:45:07.538Z,9.97
2018-12-13T08:47:18.385Z,10.77
2018-12-13T08:49:29.237Z,10.00
2018-12-13T08:51:40.155Z,10.17
2018-12-13T08:53:51.008Z,9.70
2018-12-13T08:56:01.863Z,9.70
2018-12-13T08:58:12.713Z,9.50
2018-12-13T09:00:23.544Z,10.53
2018-12-13T09:02:34.374Z,10.80
2018-12-13T09:04:45.221Z,10.03
2018-12-13T09:06:57.053Z,10.53
2018-12-13T09:09:08.089Z,10.37
2018-12-13T09:11:18.940Z,10.07
2018-12-13T09:13:29.757Z,10.50
2018-12-13T09:15:40.723Z,11.37
2018-12-13T09:17:51.548Z,10.57
2018-12-13T09:20:04.022Z,11.47
2018-12-13T09:22:14.883Z,11.03
2018-12-13T09:24:25.729Z,10.57
2018-12-13T09:26:36.572Z,10.50
2018-12-13T09:28:47.403Z,9.80
2018-12-13T09:30:58.272Z,10.00
2018-12-13T09:33:09.111Z,11.30
2018-12-13T09:35:19.957Z,10.87
2018-12-13T09:37:30.778Z,11.70
2018-12-13T09:39:41.645Z,10.57
2018-12-13T09:41:52.508Z,10.80
2018-12-13T09:44:03.369Z,10.47
2018-12-13T09:46:14.355Z,12.07
2018-12-13T09:48:25.214Z,11.50
2018-12-13T09:50:36.084Z,12.03
2018-12-13T09:52:46.951Z,11.83
2018-12-13T09:54:57.772Z,11.60
2018-12-13T09:57:08.638Z,11.67
2018-12-13T09:59:19.501Z,10.70
2018-12-13T10:01:30.349Z,11.17
2018-12-13T10:03:41.196Z,12.30
2018-12-13T10:05:52.012Z,10.83
2018-12-13T10:08:02.844Z,10.90
2018-12-13T10:10:13.690Z,11.07
2018-12-13T10:12:24.524Z,11.63
2018-12-13T10:14:35.376Z,11.20
2018-12-13T10:16:46.217Z,11.37
2018-12-13T10:18:57.059Z,11.73
2018-12-13T10:21:07.997Z,11.50
2018-12-13T10:23:18.893Z,11.23
2018-12-13T10:25:29.721Z,11.43
2018-12-13T10:27:40.564Z,11.43
2018-12-13T10:29:51.409Z,11.30
2018-12-13T10:32:02.279Z,10.40
2018-12-13T10:34:13.121Z,11.63
2018-12-13T10:36:25.613Z,10.97
2018-12-13T10:38:36.689Z,12.03
2018-12-13T10:40:47.521Z,10.60
2018-12-13T10:42:58.350Z,11.30
2018-12-13T10:45:09.302Z,11.43
2018-12-13T10:47:20.341Z,10.80
2018-12-13T10:49:31.232Z,12.37
2018-12-13T10:51:42.040Z,10.47
2018-12-13T10:53:52.873Z,11.23
2018-12-13T10:56:03.760Z,11.83
2018-12-13T10:58:14.601Z,10.97
2018-12-13T11:00:31.677Z,11.07
2018-12-13T11:03:07.612Z,11.37
2018-12-13T11:05:18.444Z,12.37
2018-12-13T11:07:29.301Z,12.70
2018-12-13T11:09:40.141Z,12.97
2018-12-13T11:11:51.100Z,11.17
2018-12-13T11:14:01.944Z,12.20
2018-12-13T11:16:12.797Z,13.27
2018-12-13T11:18:23.611Z,12.03
2018-12-13T11:20:34.469Z,10.93
2018-12-13T11:22:45.348Z,11.83
2018-12-13T11:24:56.180Z,11.27
2018-12-13T11:27:19.325Z,11.53
2018-12-13T11:29:42.496Z,12.00
2018-12-13T11:31:53.380Z,11.63
2018-12-13T11:34:04.337Z,11.73
2018-12-13T11:36:15.177Z,12.37
2018-12-13T11:38:26.193Z,12.50
2018-12-13T11:40:37.137Z,11.73
2018-12-13T11:42:47.999Z,13.03
2018-12-13T11:44:58.836Z,11.77
2018-12-13T11:47:09.697Z,12.93
2018-12-13T11:49:20.549Z,13.13
2018-12-13T11:51:31.380Z,11.80
2018-12-13T11:53:42.233Z,12.47
2018-12-13T11:55:53.071Z,13.07
2018-12-13T11:58:04.020Z,12.73
2018-12-13T12:00:14.885Z,12.43
2018-12-13T12:02:25.745Z,13.43
2018-12-13T12:04:36.592Z,14.83
2018-12-13T12:06:47.439Z,13.37
2018-12-13T12:08:58.305Z,14.27
2018-12-13T12:11:09.139Z,13.77
2018-12-13T12:13:19.993Z,13.50
2018-12-13T12:15:30.822Z,13.97
2018-12-13T12:17:41.653Z,14.23
2018-12-13T12:19:52.511Z,13.77
2018-12-13T12:22:04.254Z,14.20
2018-12-13T12:24:15.140Z,12.13
2018-12-13T12:26:26.007Z,13.00
2018-12-13T12:28:36.864Z,12.93
2018-12-13T12:30:47.713Z,13.97
2018-12-13T12:32:58.537Z,13.43
2018-12-13T12:35:09.412Z,12.20
2018-12-13T12:37:20.219Z,12.87
2018-12-13T12:39:31.079Z,12.70
2018-12-13T12:41:41.925Z,12.90
2018-12-13T12:43:52.775Z,12.07
2018-12-13T12:46:03.652Z,12.40
2018-12-13T12:48:14.496Z,12.70
2018-12-13T12:50:25.346Z,12.60
2018-12-13T12:52:36.182Z,12.03
2018-12-13T12:54:47.018Z,12.87
2018-12-13T12:56:57.886Z,12.77
2018-12-13T12:59:08.708Z,12.30
2018-12-13T13:01:19.564Z,12.30
2018-12-13T13:03:30.410Z,11.40
2018-12-13T13:05:41.331Z,12.20
2018-12-13T13:07:52.177Z,12.10
2018-12-13T13:10:03.849Z,11.47
2018-12-13T13:12:14.741Z,12.63
2018-12-13T13:14:25.569Z,13.53
2018-12-13T13:16:36.423Z,13.10
2018-12-13T13:18:47.285Z,12.73
2018-12-13T13:20:58.154Z,13.23
2018-12-13T13:23:08.995Z,13.10
2018-12-13T13:25:19.808Z,13.37
2018-12-13T13:27:30.680Z,13.40
2018-12-13T13:29:41.632Z,13.10
2018-12-13T13:31:52.480Z,12.50
2018-12-13T13:34:03.348Z,11.93
2018-12-13T13:36:14.185Z,12.00
2018-12-13T13:38:25.057Z,12.93
2018-12-13T13:40:35.920Z,11.43
2018-12-13T13:42:46.783Z,12.47
2018-12-13T13:44:59.234Z,12.70
2018-12-13T13:47:10.102Z,12.27
2018-12-13T13:49:20.972Z,12.37
2018-12-13T13:51:31.825Z,12.60
2018-12-13T13:53:42.774Z,13.17
2018-12-13T13:55:53.688Z,11.47
2018-12-13T13:58:04.669Z,12.37
2018-12-13T14:00:15.749Z,12.80
2018-12-13T14:02:26.601Z,12.17
2018-12-13T14:04:37.493Z,12.20
2018-12-13T14:06:48.328Z,12.27
2018-12-13T14:08:59.176Z,12.50
2018-12-13T14:11:10.018Z,11.57
2018-12-13T14:13:20.964Z,12.30
2018-12-13T14:15:31.909Z,12.77
2018-12-13T14:17:42.744Z,11.77
2018-12-13T14:19:53.606Z,12.90
2018-12-13T14:22:04.578Z,11.83
2018-12-13T14:24:15.443Z,12.50
2018-12-13T14:26:26.284Z,11.40
2018-12-13T14:28:37.112Z,13.57
2018-12-13T14:30:48.027Z,11.97
2018-12-13T14:32:58.888Z,13.90
2018-12-13T14:35:09.772Z,13.23
2018-12-13T14:37:20.616Z,12.67
2018-12-13T14:39:31.463Z,13.20
2018-12-13T14:41:42.314Z,12.03
2018-12-13T14:43:53.152Z,13.93
2018-12-13T14:46:04.007Z,11.97
2018-12-13T14:48:14.854Z,11.73
2018-12-13T14:50:25.825Z,13.37
2018-12-13T14:52:36.692Z,12.67
2018-12-13T14:54:47.522Z,13.17
2018-12-13T14:56:58.481Z,12.37
2018-12-13T14:59:09.341Z,11.93
2018-12-13T15:01:20.217Z,12.67
2018-12-13T15:03:31.065Z,11.90
2018-12-13T15:05:41.896Z,11.93
2018-12-13T15:07:52.766Z,12.37
2018-12-13T15:10:03.743Z,12.90
2018-12-13T15:12:14.637Z,13.23
2018-12-13T15:14:25.501Z,12.13
2018-12-13T15:16:36.351Z,13.03
2018-12-13T15:18:47.213Z,13.07
2018-12-13T15:20:58.064Z,11.60
2018-12-13T15:23:08.965Z,12.27
2018-12-13T15:25:19.831Z,11.80
2018-12-13T15:27:30.721Z,12.43
2018-12-13T15:29:41.562Z,12.17
2018-12-13T15:31:59.147Z,12.90
2018-12-13T15:34:05.327Z,12.43
2018-12-13T15:36:16.297Z,12.53
2018-12-13T15:38:27.166Z,13.03
2018-12-13T15:40:38.004Z,12.67
2018-12-13T15:42:48.955Z,12.93
2018-12-13T15:44:59.799Z,12.30
2018-12-13T15:47:10.630Z,12.43
2018-12-13T15:49:22.325Z,11.70
2018-12-13T15:51:33.188Z,12.73
2018-12-13T15:53:44.085Z,12.40
2018-12-13T15:55:55.091Z,12.10
2018-12-13T15:58:06.704Z,11.43
2018-12-13T16:00:17.689Z,12.73
2018-12-13T16:02:28.522Z,11.83
2018-12-13T16:04:39.379Z,11.60
2018-12-13T16:06:50.251Z,11.80
2018-12-13T16:09:01.122Z,11.67
2018-12-13T16:11:11.953Z,11.80
2018-12-13T16:13:22.797Z,12.03
2018-12-13T16:15:33.699Z,11.60
2018-12-13T16:17:44.554Z,11.80
2018-12-13T16:19:55.398Z,12.60
2018-12-13T16:22:06.276Z,12.43
2018-12-13T16:24:17.165Z,12.67
2018-12-13T16:26:28.034Z,12.20
2018-12-13T16:28:38.874Z,12.53
2018-12-13T16:30:49.754Z,11.43
2018-12-13T16:33:00.600Z,12.77
2018-12-13T16:35:11.469Z,11.67
2018-12-13T16:37:22.337Z,12.10
2018-12-13T16:39:33.210Z,12.10
2018-12-13T16:41:44.072Z,12.57
2018-12-13T16:43:55.696Z,12.40
2018-12-13T16:46:06.579Z,11.83
2018-12-13T16:48:17.458Z,12.07
2018-12-13T16:50:28.295Z,10.93
2018-12-13T16:52:39.252Z,12.13
2018-12-13T16:54:50.092Z,13.07
2018-12-13T16:57:00.955Z,12.03
2018-12-13T16:59:11.811Z,11.93
2018-12-13T17:01:22.674Z,12.23
2018-12-13T17:03:42.615Z,12.17
2018-12-13T17:05:53.497Z,11.77
2018-12-13T17:08:04.371Z,11.80
2018-12-13T17:10:16.852Z,12.13
2018-12-13T17:12:28.098Z,11.73
2018-12-13T17:14:38.963Z,11.80
2018-12-13T17:16:49.802Z,12.73
2018-12-13T17:19:00.676Z,12.07
2018-12-13T17:21:11.554Z,11.63
2018-12-13T17:23:22.424Z,12.37
2018-12-13T17:25:33.306Z,13.20
2018-12-13T17:27:44.107Z,13.07
2018-12-13T17:29:54.997Z,12.80
2018-12-13T17:32:05.817Z,12.63
2018-12-13T17:34:16.642Z,12.07
2018-12-13T17:36:27.526Z,13.40
2018-12-13T17:38:38.428Z,13.67
2018-12-13T17:40:49.295Z,13.23
2018-12-13T17:43:00.236Z,13.43
2018-12-13T17:45:11.096Z,14.57
2018-12-13T17:47:22.949Z,12.87
2018-12-13T17:49:33.772Z,14.00
2018-12-13T17:51:44.637Z,13.37
2018-12-13T17:53:55.509Z,13.67
2018-12-13T17:56:06.373Z,13.70
2018-12-13T17:58:17.255Z,14.70
2018-12-13T18:00:28.105Z,15.03
2018-12-13T18:02:39.100Z,17.00
2018-12-13T18:04:49.966Z,15.10
2018-12-13T18:07:00.897Z,15.03
2018-12-13T18:09:11.775Z,12.43
2018-12-13T18:11:22.631Z,12.73
2018-12-13T18:13:33.477Z,12.33
2018-12-13T18:15:44.338Z,13.87
2018-12-13T18:17:55.228Z,11.97
2018-12-13T18:20:06.222Z,10.80
2018-12-13T18:22:17.111Z,11.60
2018-12-13T18:24:27.978Z,11.63
2018-12-13T18:26:38.855Z,12.23
2018-12-13T18:28:49.693Z,12.00
2018-12-13T18:31:00.581Z,12.10
2018-12-13T18:33:11.533Z,11.97
2018-12-13T18:35:22.371Z,12.07
2018-12-13T18:37:33.258Z,11.37
2018-12-13T18:39:44.142Z,13.17
2018-12-13T18:41:55.057Z,11.93
2018-12-13T18:44:05.989Z,12.27
2018-12-13T18:46:16.997Z,12.87
2018-12-13T18:48:27.986Z,12.93
2018-12-13T18:50:39.054Z,13.23
2018-12-13T18:52:49.913Z,12.60
2018-12-13T18:55:00.804Z,11.97
2018-12-13T18:57:11.648Z,13.23
2018-12-13T18:59:22.577Z,13.53
2018-12-13T19:01:33.459Z,12.63
2018-12-13T19:03:44.339Z,10.73
2018-12-13T19:05:55.233Z,12.87
2018-12-13T19:08:06.068Z,12.23
2018-12-13T19:10:16.965Z,11.10
2018-12-13T19:12:27.854Z,13.30
2018-12-13T19:14:38.715Z,11.80
2018-12-13T19:16:49.574Z,11.43
2018-12-13T19:19:00.517Z,12.63
2018-12-13T19:21:11.504Z,11.83
2018-12-13T19:23:22.365Z,12.53
2018-12-13T19:25:33.247Z,12.20
2018-12-13T19:27:44.145Z,11.53
2018-12-13T19:29:55.016Z,12.50
2018-12-13T19:32:05.907Z,12.43
2018-12-13T19:34:16.798Z,12.30
2018-12-13T19:36:27.683Z,13.03
2018-12-13T19:38:38.512Z,12.40
2018-12-13T19:40:49.391Z,12.10
2018-12-13T19:43:00.254Z,12.60
2018-12-13T19:45:11.113Z,11.70
2018-12-13T19:47:22.041Z,11.13
2018-12-13T19:49:32.892Z,12.43
2018-12-13T19:51:43.794Z,12.30
2018-12-13T19:53:54.657Z,12.50
2018-12-13T19:56:05.588Z,12.23
2018-12-13T19:58:16.440Z,11.83
2018-12-13T20:00:27.282Z,11.57
2018-12-13T20:02:38.192Z,12.77
2018-12-13T20:04:49.065Z,12.00
2018-12-13T20:06:59.925Z,11.27
2018-12-13T20:09:10.792Z,11.83
2018-12-13T20:11:21.637Z,12.00
2018-12-13T20:13:32.582Z,11.40
2018-12-13T20:15:43.441Z,12.00
2018-12-13T20:17:54.393Z,10.63
2018-12-13T20:20:05.400Z,11.10
2018-12-13T20:22:16.416Z,11.73
2018-12-13T20:24:27.301Z,12.23
2018-12-13T20:26:38.155Z,10.80
2018-12-13T20:28:49.064Z,10.77
2018-12-13T20:30:59.916Z,11.40
2018-12-13T20:33:10.779Z,11.50
2018-12-13T20:35:22.249Z,11.90
2018-12-13T20:37:33.087Z,11.23
2018-12-13T20:39:43.957Z,12.43
2018-12-13T20:41:54.826Z,11.03
2018-12-13T20:44:05.713Z,11.30
2018-12-13T20:46:16.606Z,11.90
2018-12-13T20:48:27.475Z,10.87
2018-12-13T20:50:38.362Z,12.60
2018-12-13T20:52:49.208Z,12.53
2018-12-13T20:55:00.059Z,12.00
2018-12-13T20:57:10.956Z,11.50
2018-12-13T20:59:21.856Z,12.03
2018-12-13T21:01:32.760Z,12.67
2018-12-13T21:03:43.676Z,12.00
2018-12-13T21:05:54.579Z,12.43
2018-12-13T21:08:08.915Z,12.07
2018-12-13T21:10:19.789Z,11.57
2018-12-13T21:12:30.657Z,12.90
2018-12-13T21:14:41.501Z,13.47
2018-12-13T21:16:52.410Z,12.60
2018-12-13T21:19:03.386Z,13.43
2018-12-13T21:21:14.261Z,12.73
2018-12-13T21:23:25.132Z,13.13
2018-12-13T21:25:36.012Z,13.23
2018-12-13T21:27:46.892Z,12.63
2018-12-13T21:29:57.761Z,12.10
2018-12-13T21:32:08.644Z,12.53
2018-12-13T21:34:19.484Z,12.53
2018-12-13T21:36:30.352Z,13.63
2018-12-13T21:38:41.228Z,12.50
2018-12-13T21:40:52.086Z,13.27
2018-12-13T21:43:03.079Z,12.70
2018-12-13T21:45:13.931Z,13.10
2018-12-13T21:47:24.765Z,12.23
2018-12-13T21:49:35.699Z,13.97
2018-12-13T21:51:46.691Z,12.13
2018-12-13T21:53:57.568Z,12.93
2018-12-13T21:56:08.421Z,13.20
2018-12-13T21:58:19.293Z,13.07
2018-12-13T22:00:30.221Z,11.83
2018-12-13T22:02:41.106Z,13.30
2018-12-13T22:04:51.961Z,13.77
2018-12-13T22:07:02.829Z,13.63
2018-12-13T22:09:13.688Z,13.13
2018-12-13T22:11:24.568Z,12.13
2018-12-13T22:13:35.446Z,12.53
2018-12-13T22:15:46.333Z,13.77
2018-12-13T22:17:57.189Z,12.57
2018-12-13T22:20:08.016Z,13.37
2018-12-13T22:22:18.900Z,13.50
2018-12-13T22:24:29.865Z,12.77
2018-12-13T22:26:40.771Z,13.27
2018-12-13T22:28:51.654Z,13.97
2018-12-13T22:31:02.478Z,12.80
2018-12-13T22:33:13.306Z,13.70
2018-12-13T22:35:24.156Z,13.60
2018-12-13T22:37:35.007Z,12.53
2018-12-13T22:39:45.889Z,12.33
2018-12-13T22:41:56.720Z,12.87
2018-12-13T22:44:07.597Z,13.37
2018-12-13T22:46:18.449Z,13.73
2018-12-13T22:48:30.332Z,13.23
2018-12-13T22:50:41.186Z,13.20
2018-12-13T22:52:52.037Z,13.47
2018-12-13T22:55:03.636Z,13.20
2018-12-13T22:57:14.478Z,12.70
2018-12-13T22:59:25.297Z,11.77
2018-12-13T23:01:36.161Z,13.30
2018-12-13T23:03:47.005Z,12.47
2018-12-13T23:05:57.926Z,14.00
2018-12-13T23:08:08.757Z,12.20
2018-12-13T23:10:19.632Z,13.70
2018-12-13T23:12:30.454Z,14.27
2018-12-13T23:14:41.521Z,11.80
2018-12-13T23:16:52.480Z,13.60
2018-12-13T23:19:03.301Z,12.97
2018-12-13T23:21:14.168Z,12.40
2018-12-13T23:23:25.110Z,12.10
2018-12-13T23:25:36.754Z,12.70
2018-12-13T23:27:47.727Z,12.83
2018-12-13T23:29:58.569Z,12.50
2018-12-13T23:32:09.430Z,12.37
2018-12-13T23:34:20.268Z,12.57
2018-12-13T23:36:31.124Z,13.87
2018-12-13T23:38:42.075Z,12.17
2018-12-13T23:40:52.896Z,13.07
2018-12-13T23:43:03.763Z,13.00
2018-12-13T23:45:14.597Z,13.27
2018-12-13T23:47:25.485Z,12.97
2018-12-13T23:49:36.442Z,12.47
2018-12-13T23:51:47.265Z,12.60
2018-12-13T23:53:58.096Z,13.17
2018-12-13T23:56:08.955Z,12.07
2018-12-13T23:58:19.918Z,13.27
